sensor_id;sensor_type;location;lat;lon;timestamp;P1;durP1;ratioP1;P2;durP2;ratioP2
75272;SDS011;63869;52.344;16.928;2023-01-23T00:00:48;23.85;;;10.63;;
75272;SDS011;63869;52.344;16.928;2023-01-23T00:03:13;22.48;;;10.15;;
75272;SDS011;63869;52.344;16.928;2023-01-23T00:05:38;22.38;;;9.90;;
75272;SDS011;63869;52.344;16.928;2023-01-23T00:08:04;23.90;;;9.60;;
75272;SDS011;63869;52.344;16.928;2023-01-23T00:10:29;23.45;;;10.43;;
75272;SDS011;63869;52.344;16.928;2023-01-23T00:12:55;23.75;;;10.05;;
75272;SDS011;63869;52.344;16.928;2023-01-23T00:15:21;23.02;;;9.70;;
75272;SDS011;63869;52.344;16.928;2023-01-23T00:17:47;23.65;;;10.43;;
75272;SDS011;63869;52.344;16.928;2023-01-23T00:20:12;23.08;;;10.55;;
75272;SDS011;63869;52.344;16.928;2023-01-23T00:22:38;17.85;;;9.20;;
75272;SDS011;63869;52.344;16.928;2023-01-23T00:25:03;22.27;;;10.23;;
75272;SDS011;63869;52.344;16.928;2023-01-23T00:27:29;18.52;;;9.30;;
75272;SDS011;63869;52.344;16.928;2023-01-23T00:29:55;22.23;;;9.40;;
75272;SDS011;63869;52.344;16.928;2023-01-23T00:32:20;19.63;;;9.85;;
75272;SDS011;63869;52.344;16.928;2023-01-23T00:34:46;19.75;;;8.88;;
75272;SDS011;63869;52.344;16.928;2023-01-23T00:37:12;18.25;;;8.90;;
75272;SDS011;63869;52.344;16.928;2023-01-23T00:39:37;19.23;;;9.07;;
75272;SDS011;63869;52.344;16.928;2023-01-23T00:42:03;18.65;;;8.43;;
75272;SDS011;63869;52.344;16.928;2023-01-23T00:44:30;21.85;;;8.85;;
75272;SDS011;63869;52.344;16.928;2023-01-23T00:46:56;18.55;;;8.70;;
75272;SDS011;63869;52.344;16.928;2023-01-23T00:49:22;17.77;;;8.85;;
75272;SDS011;63869;52.344;16.928;2023-01-23T00:51:50;17.08;;;8.20;;
75272;SDS011;63869;52.344;16.928;2023-01-23T00:54:17;19.63;;;9.40;;
75272;SDS011;63869;52.344;16.928;2023-01-23T00:56:44;17.95;;;8.57;;
75272;SDS011;63869;52.344;16.928;2023-01-23T00:59:09;19.58;;;8.98;;
75272;SDS011;63869;52.344;16.928;2023-01-23T01:01:35;17.48;;;8.32;;
75272;SDS011;63869;52.344;16.928;2023-01-23T01:04:00;20.00;;;8.75;;
75272;SDS011;63869;52.344;16.928;2023-01-23T01:06:25;20.00;;;8.88;;
75272;SDS011;63869;52.344;16.928;2023-01-23T01:08:51;19.30;;;8.65;;
75272;SDS011;63869;52.344;16.928;2023-01-23T01:11:16;19.35;;;8.68;;
75272;SDS011;63869;52.344;16.928;2023-01-23T01:13:45;20.13;;;8.82;;
75272;SDS011;63869;52.344;16.928;2023-01-23T01:16:11;17.45;;;8.63;;
75272;SDS011;63869;52.344;16.928;2023-01-23T01:18:36;16.23;;;7.97;;
75272;SDS011;63869;52.344;16.928;2023-01-23T01:21:09;17.35;;;8.65;;
75272;SDS011;63869;52.344;16.928;2023-01-23T01:23:39;18.95;;;8.75;;
75272;SDS011;63869;52.344;16.928;2023-01-23T01:26:05;19.77;;;8.63;;
75272;SDS011;63869;52.344;16.928;2023-01-23T01:28:32;21.67;;;8.55;;
75272;SDS011;63869;52.344;16.928;2023-01-23T01:31:02;17.58;;;8.63;;
75272;SDS011;63869;52.344;16.928;2023-01-23T01:33:36;18.92;;;8.68;;
75272;SDS011;63869;52.344;16.928;2023-01-23T01:36:03;20.30;;;8.32;;
75272;SDS011;63869;52.344;16.928;2023-01-23T01:38:32;17.10;;;8.38;;
75272;SDS011;63869;52.344;16.928;2023-01-23T01:40:57;18.63;;;7.97;;
75272;SDS011;63869;52.344;16.928;2023-01-23T01:43:23;20.63;;;8.85;;
75272;SDS011;63869;52.344;16.928;2023-01-23T01:48:54;19.45;;;8.65;;
75272;SDS011;63869;52.344;16.928;2023-01-23T01:51:30;17.00;;;8.70;;
75272;SDS011;63869;52.344;16.928;2023-01-23T01:56:24;17.80;;;8.48;;
75272;SDS011;63869;52.344;16.928;2023-01-23T01:58:52;16.30;;;8.10;;
75272;SDS011;63869;52.344;16.928;2023-01-23T02:01:18;16.90;;;7.50;;
75272;SDS011;63869;52.344;16.928;2023-01-23T02:03:44;17.40;;;8.27;;
75272;SDS011;63869;52.344;16.928;2023-01-23T02:06:10;19.52;;;8.95;;
75272;SDS011;63869;52.344;16.928;2023-01-23T02:08:39;18.20;;;8.93;;
75272;SDS011;63869;52.344;16.928;2023-01-23T02:11:10;19.92;;;8.70;;
75272;SDS011;63869;52.344;16.928;2023-01-23T02:13:38;17.67;;;8.55;;
75272;SDS011;63869;52.344;16.928;2023-01-23T02:18:43;20.92;;;9.30;;
75272;SDS011;63869;52.344;16.928;2023-01-23T02:21:12;19.20;;;9.05;;
75272;SDS011;63869;52.344;16.928;2023-01-23T02:26:17;19.42;;;8.75;;
75272;SDS011;63869;52.344;16.928;2023-01-23T02:28:47;20.50;;;8.48;;
75272;SDS011;63869;52.344;16.928;2023-01-23T02:31:15;23.20;;;8.95;;
75272;SDS011;63869;52.344;16.928;2023-01-23T02:33:42;17.98;;;8.80;;
75272;SDS011;63869;52.344;16.928;2023-01-23T02:36:13;17.83;;;8.70;;
75272;SDS011;63869;52.344;16.928;2023-01-23T02:38:40;17.17;;;8.40;;
75272;SDS011;63869;52.344;16.928;2023-01-23T02:41:15;17.50;;;9.13;;
75272;SDS011;63869;52.344;16.928;2023-01-23T02:43:44;15.98;;;8.32;;
75272;SDS011;63869;52.344;16.928;2023-01-23T02:46:11;21.48;;;8.55;;
75272;SDS011;63869;52.344;16.928;2023-01-23T02:48:36;18.23;;;9.02;;
75272;SDS011;63869;52.344;16.928;2023-01-23T02:51:07;18.92;;;8.50;;
75272;SDS011;63869;52.344;16.928;2023-01-23T02:53:33;20.67;;;9.18;;
75272;SDS011;63869;52.344;16.928;2023-01-23T02:55:58;16.20;;;8.52;;
75272;SDS011;63869;52.344;16.928;2023-01-23T02:58:24;20.83;;;9.40;;
75272;SDS011;63869;52.344;16.928;2023-01-23T03:03:34;16.85;;;7.90;;
75272;SDS011;63869;52.344;16.928;2023-01-23T03:05:59;18.00;;;8.18;;
75272;SDS011;63869;52.344;16.928;2023-01-23T03:08:27;18.13;;;8.20;;
75272;SDS011;63869;52.344;16.928;2023-01-23T03:10:58;17.63;;;8.50;;
75272;SDS011;63869;52.344;16.928;2023-01-23T03:13:24;20.20;;;9.20;;
75272;SDS011;63869;52.344;16.928;2023-01-23T03:15:50;21.27;;;9.15;;
75272;SDS011;63869;52.344;16.928;2023-01-23T03:18:20;20.67;;;9.07;;
75272;SDS011;63869;52.344;16.928;2023-01-23T03:20:45;18.00;;;7.97;;
75272;SDS011;63869;52.344;16.928;2023-01-23T03:23:11;19.10;;;8.77;;
75272;SDS011;63869;52.344;16.928;2023-01-23T03:25:36;18.23;;;8.60;;
75272;SDS011;63869;52.344;16.928;2023-01-23T03:28:06;17.45;;;8.27;;
75272;SDS011;63869;52.344;16.928;2023-01-23T03:30:51;17.02;;;8.10;;
75272;SDS011;63869;52.344;16.928;2023-01-23T03:33:18;21.75;;;8.95;;
75272;SDS011;63869;52.344;16.928;2023-01-23T03:35:43;17.15;;;7.90;;
75272;SDS011;63869;52.344;16.928;2023-01-23T03:38:09;17.83;;;8.45;;
75272;SDS011;63869;52.344;16.928;2023-01-23T03:40:34;19.05;;;8.23;;
75272;SDS011;63869;52.344;16.928;2023-01-23T03:43:32;16.05;;;7.95;;
75272;SDS011;63869;52.344;16.928;2023-01-23T03:45:58;16.38;;;8.05;;
75272;SDS011;63869;52.344;16.928;2023-01-23T03:48:23;18.75;;;8.60;;
75272;SDS011;63869;52.344;16.928;2023-01-23T03:50:49;20.27;;;8.52;;
75272;SDS011;63869;52.344;16.928;2023-01-23T03:53:14;17.27;;;8.27;;
75272;SDS011;63869;52.344;16.928;2023-01-23T03:55:39;18.50;;;7.72;;
75272;SDS011;63869;52.344;16.928;2023-01-23T03:58:05;15.70;;;7.88;;
75272;SDS011;63869;52.344;16.928;2023-01-23T04:00:30;18.48;;;8.55;;
75272;SDS011;63869;52.344;16.928;2023-01-23T04:02:55;17.75;;;7.90;;
75272;SDS011;63869;52.344;16.928;2023-01-23T04:05:21;16.58;;;7.78;;
75272;SDS011;63869;52.344;16.928;2023-01-23T04:07:46;16.65;;;7.82;;
75272;SDS011;63869;52.344;16.928;2023-01-23T04:10:11;16.10;;;7.55;;
75272;SDS011;63869;52.344;16.928;2023-01-23T04:12:38;15.68;;;8.05;;
75272;SDS011;63869;52.344;16.928;2023-01-23T04:15:07;15.38;;;7.72;;
75272;SDS011;63869;52.344;16.928;2023-01-23T04:17:33;16.40;;;8.20;;
75272;SDS011;63869;52.344;16.928;2023-01-23T04:19:59;18.30;;;8.18;;
75272;SDS011;63869;52.344;16.928;2023-01-23T04:22:24;16.27;;;7.65;;
75272;SDS011;63869;52.344;16.928;2023-01-23T04:24:50;16.92;;;7.90;;
75272;SDS011;63869;52.344;16.928;2023-01-23T04:27:15;15.82;;;8.43;;
75272;SDS011;63869;52.344;16.928;2023-01-23T04:29:40;18.15;;;8.15;;
75272;SDS011;63869;52.344;16.928;2023-01-23T04:32:06;16.85;;;8.73;;
75272;SDS011;63869;52.344;16.928;2023-01-23T04:34:33;15.95;;;7.50;;
75272;SDS011;63869;52.344;16.928;2023-01-23T04:36:58;16.40;;;8.73;;
75272;SDS011;63869;52.344;16.928;2023-01-23T04:39:24;15.95;;;8.38;;
75272;SDS011;63869;52.344;16.928;2023-01-23T04:41:49;15.60;;;8.30;;
75272;SDS011;63869;52.344;16.928;2023-01-23T04:44:14;16.17;;;8.10;;
75272;SDS011;63869;52.344;16.928;2023-01-23T04:46:49;19.10;;;8.43;;
75272;SDS011;63869;52.344;16.928;2023-01-23T04:49:17;17.60;;;8.23;;
75272;SDS011;63869;52.344;16.928;2023-01-23T04:51:43;20.05;;;8.50;;
75272;SDS011;63869;52.344;16.928;2023-01-23T04:54:09;13.35;;;7.50;;
75272;SDS011;63869;52.344;16.928;2023-01-23T04:56:35;18.27;;;8.55;;
75272;SDS011;63869;52.344;16.928;2023-01-23T04:59:00;16.55;;;7.65;;
75272;SDS011;63869;52.344;16.928;2023-01-23T05:01:26;15.25;;;8.50;;
75272;SDS011;63869;52.344;16.928;2023-01-23T05:03:51;19.75;;;8.13;;
75272;SDS011;63869;52.344;16.928;2023-01-23T05:06:17;15.73;;;8.80;;
75272;SDS011;63869;52.344;16.928;2023-01-23T05:08:43;17.63;;;8.32;;
75272;SDS011;63869;52.344;16.928;2023-01-23T05:11:09;15.20;;;8.25;;
75272;SDS011;63869;52.344;16.928;2023-01-23T05:13:35;17.80;;;8.45;;
75272;SDS011;63869;52.344;16.928;2023-01-23T05:16:01;17.90;;;8.40;;
75272;SDS011;63869;52.344;16.928;2023-01-23T05:18:26;18.00;;;8.55;;
75272;SDS011;63869;52.344;16.928;2023-01-23T05:20:52;15.65;;;8.15;;
75272;SDS011;63869;52.344;16.928;2023-01-23T05:23:17;17.92;;;8.70;;
75272;SDS011;63869;52.344;16.928;2023-01-23T05:25:43;17.85;;;8.50;;
75272;SDS011;63869;52.344;16.928;2023-01-23T05:28:10;15.50;;;8.38;;
75272;SDS011;63869;52.344;16.928;2023-01-23T05:30:35;19.13;;;8.52;;
75272;SDS011;63869;52.344;16.928;2023-01-23T05:33:01;19.42;;;9.68;;
75272;SDS011;63869;52.344;16.928;2023-01-23T05:35:26;16.25;;;8.13;;
75272;SDS011;63869;52.344;16.928;2023-01-23T05:37:51;21.50;;;8.95;;
75272;SDS011;63869;52.344;16.928;2023-01-23T05:40:18;18.23;;;8.95;;
75272;SDS011;63869;52.344;16.928;2023-01-23T05:42:44;18.30;;;9.35;;
75272;SDS011;63869;52.344;16.928;2023-01-23T05:45:10;19.20;;;8.32;;
75272;SDS011;63869;52.344;16.928;2023-01-23T05:47:36;19.23;;;9.10;;
75272;SDS011;63869;52.344;16.928;2023-01-23T05:50:01;20.60;;;8.95;;
75272;SDS011;63869;52.344;16.928;2023-01-23T05:52:27;19.30;;;9.48;;
75272;SDS011;63869;52.344;16.928;2023-01-23T05:54:52;17.48;;;9.35;;
75272;SDS011;63869;52.344;16.928;2023-01-23T05:57:18;17.67;;;9.02;;
75272;SDS011;63869;52.344;16.928;2023-01-23T05:59:43;19.60;;;9.20;;
75272;SDS011;63869;52.344;16.928;2023-01-23T06:02:09;19.90;;;9.40;;
75272;SDS011;63869;52.344;16.928;2023-01-23T06:04:34;18.13;;;9.02;;
75272;SDS011;63869;52.344;16.928;2023-01-23T06:06:59;21.42;;;9.85;;
75272;SDS011;63869;52.344;16.928;2023-01-23T06:09:25;20.23;;;9.95;;
75272;SDS011;63869;52.344;16.928;2023-01-23T06:11:50;20.42;;;10.15;;
75272;SDS011;63869;52.344;16.928;2023-01-23T06:14:16;20.58;;;9.30;;
75272;SDS011;63869;52.344;16.928;2023-01-23T06:16:41;17.33;;;9.45;;
75272;SDS011;63869;52.344;16.928;2023-01-23T06:19:06;20.90;;;9.55;;
75272;SDS011;63869;52.344;16.928;2023-01-23T06:21:31;20.08;;;9.82;;
75272;SDS011;63869;52.344;16.928;2023-01-23T06:23:57;20.05;;;11.18;;
75272;SDS011;63869;52.344;16.928;2023-01-23T06:26:24;24.48;;;11.73;;
75272;SDS011;63869;52.344;16.928;2023-01-23T06:29:11;24.38;;;10.18;;
75272;SDS011;63869;52.344;16.928;2023-01-23T06:31:36;23.67;;;10.95;;
75272;SDS011;63869;52.344;16.928;2023-01-23T06:34:02;20.58;;;10.60;;
75272;SDS011;63869;52.344;16.928;2023-01-23T06:36:27;25.20;;;12.20;;
75272;SDS011;63869;52.344;16.928;2023-01-23T06:38:53;21.45;;;11.50;;
75272;SDS011;63869;52.344;16.928;2023-01-23T06:41:19;23.70;;;10.90;;
75272;SDS011;63869;52.344;16.928;2023-01-23T06:43:45;21.90;;;10.82;;
75272;SDS011;63869;52.344;16.928;2023-01-23T06:46:10;28.67;;;11.65;;
75272;SDS011;63869;52.344;16.928;2023-01-23T06:48:36;30.85;;;13.98;;
75272;SDS011;63869;52.344;16.928;2023-01-23T06:51:02;26.75;;;11.43;;
75272;SDS011;63869;52.344;16.928;2023-01-23T06:53:28;28.77;;;11.20;;
75272;SDS011;63869;52.344;16.928;2023-01-23T06:55:57;26.38;;;11.63;;
75272;SDS011;63869;52.344;16.928;2023-01-23T06:58:23;27.05;;;12.48;;
75272;SDS011;63869;52.344;16.928;2023-01-23T07:00:49;29.63;;;12.18;;
75272;SDS011;63869;52.344;16.928;2023-01-23T07:03:14;26.73;;;11.98;;
75272;SDS011;63869;52.344;16.928;2023-01-23T07:05:39;25.65;;;11.57;;
75272;SDS011;63869;52.344;16.928;2023-01-23T07:08:07;24.83;;;10.98;;
75272;SDS011;63869;52.344;16.928;2023-01-23T07:10:36;26.95;;;11.15;;
75272;SDS011;63869;52.344;16.928;2023-01-23T07:13:05;24.80;;;11.52;;
75272;SDS011;63869;52.344;16.928;2023-01-23T07:15:34;26.50;;;11.38;;
75272;SDS011;63869;52.344;16.928;2023-01-23T07:18:00;27.80;;;11.10;;
75272;SDS011;63869;52.344;16.928;2023-01-23T07:20:26;26.83;;;12.05;;
75272;SDS011;63869;52.344;16.928;2023-01-23T07:22:55;28.83;;;11.98;;
75272;SDS011;63869;52.344;16.928;2023-01-23T07:25:22;27.75;;;11.90;;
75272;SDS011;63869;52.344;16.928;2023-01-23T07:27:48;26.10;;;11.30;;
75272;SDS011;63869;52.344;16.928;2023-01-23T07:30:14;27.13;;;11.60;;
75272;SDS011;63869;52.344;16.928;2023-01-23T07:32:40;26.85;;;11.75;;
75272;SDS011;63869;52.344;16.928;2023-01-23T07:35:05;27.13;;;11.73;;
75272;SDS011;63869;52.344;16.928;2023-01-23T07:37:31;28.92;;;11.20;;
75272;SDS011;63869;52.344;16.928;2023-01-23T07:39:58;25.88;;;11.27;;
75272;SDS011;63869;52.344;16.928;2023-01-23T07:42:23;25.80;;;11.25;;
75272;SDS011;63869;52.344;16.928;2023-01-23T07:44:49;24.98;;;11.93;;
75272;SDS011;63869;52.344;16.928;2023-01-23T07:47:14;34.63;;;11.52;;
75272;SDS011;63869;52.344;16.928;2023-01-23T07:49:39;27.88;;;11.68;;
75272;SDS011;63869;52.344;16.928;2023-01-23T07:52:04;27.38;;;11.80;;
75272;SDS011;63869;52.344;16.928;2023-01-23T07:54:30;25.10;;;11.10;;
75272;SDS011;63869;52.344;16.928;2023-01-23T07:56:55;28.77;;;12.18;;
75272;SDS011;63869;52.344;16.928;2023-01-23T07:59:21;27.33;;;11.30;;
75272;SDS011;63869;52.344;16.928;2023-01-23T08:01:46;24.25;;;10.80;;
75272;SDS011;63869;52.344;16.928;2023-01-23T08:04:13;25.02;;;11.80;;
75272;SDS011;63869;52.344;16.928;2023-01-23T08:06:38;29.38;;;12.50;;
75272;SDS011;63869;52.344;16.928;2023-01-23T08:09:05;26.75;;;11.57;;
75272;SDS011;63869;52.344;16.928;2023-01-23T08:11:30;29.70;;;12.52;;
75272;SDS011;63869;52.344;16.928;2023-01-23T08:13:55;26.27;;;12.07;;
75272;SDS011;63869;52.344;16.928;2023-01-23T08:16:20;23.33;;;11.25;;
75272;SDS011;63869;52.344;16.928;2023-01-23T08:18:46;26.85;;;12.43;;
75272;SDS011;63869;52.344;16.928;2023-01-23T08:21:11;24.65;;;11.43;;
75272;SDS011;63869;52.344;16.928;2023-01-23T08:23:37;25.67;;;11.35;;
75272;SDS011;63869;52.344;16.928;2023-01-23T08:26:05;31.27;;;12.90;;
75272;SDS011;63869;52.344;16.928;2023-01-23T08:28:33;27.98;;;12.73;;
75272;SDS011;63869;52.344;16.928;2023-01-23T08:31:03;28.63;;;12.05;;
75272;SDS011;63869;52.344;16.928;2023-01-23T08:33:31;25.60;;;11.20;;
75272;SDS011;63869;52.344;16.928;2023-01-23T08:35:58;27.42;;;11.57;;
75272;SDS011;63869;52.344;16.928;2023-01-23T08:38:23;23.48;;;11.32;;
75272;SDS011;63869;52.344;16.928;2023-01-23T08:40:50;25.38;;;11.25;;
75272;SDS011;63869;52.344;16.928;2023-01-23T08:43:16;26.75;;;11.52;;
75272;SDS011;63869;52.344;16.928;2023-01-23T08:45:50;22.13;;;11.30;;
75272;SDS011;63869;52.344;16.928;2023-01-23T08:48:18;24.85;;;10.88;;
75272;SDS011;63869;52.344;16.928;2023-01-23T08:50:45;24.88;;;10.68;;
75272;SDS011;63869;52.344;16.928;2023-01-23T08:53:11;26.63;;;11.55;;
75272;SDS011;63869;52.344;16.928;2023-01-23T08:55:37;24.77;;;11.15;;
75272;SDS011;63869;52.344;16.928;2023-01-23T08:58:03;29.77;;;12.63;;
75272;SDS011;63869;52.344;16.928;2023-01-23T09:00:30;22.83;;;11.02;;
75272;SDS011;63869;52.344;16.928;2023-01-23T09:02:57;28.83;;;12.52;;
75272;SDS011;63869;52.344;16.928;2023-01-23T09:05:23;37.17;;;15.80;;
75272;SDS011;63869;52.344;16.928;2023-01-23T09:07:48;37.95;;;16.35;;
75272;SDS011;63869;52.344;16.928;2023-01-23T09:10:14;31.88;;;13.95;;
75272;SDS011;63869;52.344;16.928;2023-01-23T09:12:40;27.92;;;12.10;;
75272;SDS011;63869;52.344;16.928;2023-01-23T09:15:06;26.02;;;11.93;;
75272;SDS011;63869;52.344;16.928;2023-01-23T09:17:32;30.75;;;13.27;;
75272;SDS011;63869;52.344;16.928;2023-01-23T09:19:57;27.48;;;13.60;;
75272;SDS011;63869;52.344;16.928;2023-01-23T09:22:24;27.20;;;12.77;;
75272;SDS011;63869;52.344;16.928;2023-01-23T09:24:50;27.08;;;11.63;;
75272;SDS011;63869;52.344;16.928;2023-01-23T09:27:15;27.30;;;12.40;;
75272;SDS011;63869;52.344;16.928;2023-01-23T09:29:41;26.48;;;11.30;;
75272;SDS011;63869;52.344;16.928;2023-01-23T09:32:07;25.75;;;11.93;;
75272;SDS011;63869;52.344;16.928;2023-01-23T09:34:32;26.13;;;11.57;;
75272;SDS011;63869;52.344;16.928;2023-01-23T09:36:57;24.52;;;12.38;;
75272;SDS011;63869;52.344;16.928;2023-01-23T09:39:22;28.98;;;11.98;;
75272;SDS011;63869;52.344;16.928;2023-01-23T09:41:48;26.58;;;12.40;;
75272;SDS011;63869;52.344;16.928;2023-01-23T09:46:55;24.48;;;12.75;;
75272;SDS011;63869;52.344;16.928;2023-01-23T09:52:12;31.08;;;14.00;;
75272;SDS011;63869;52.344;16.928;2023-01-23T09:54:45;28.58;;;13.70;;
75272;SDS011;63869;52.344;16.928;2023-01-23T09:57:14;31.40;;;12.70;;
75272;SDS011;63869;52.344;16.928;2023-01-23T09:59:45;29.52;;;13.25;;
75272;SDS011;63869;52.344;16.928;2023-01-23T10:02:33;30.13;;;13.95;;
75272;SDS011;63869;52.344;16.928;2023-01-23T10:04:58;28.13;;;14.05;;
75272;SDS011;63869;52.344;16.928;2023-01-23T10:26:07;32.03;;;13.50;;
75272;SDS011;63869;52.344;16.928;2023-01-23T10:28:37;31.92;;;14.60;;
75272;SDS011;63869;52.344;16.928;2023-01-23T10:34:01;31.48;;;13.80;;
75272;SDS011;63869;52.344;16.928;2023-01-23T10:36:38;30.23;;;14.55;;
75272;SDS011;63869;52.344;16.928;2023-01-23T10:39:13;31.55;;;14.70;;
75272;SDS011;63869;52.344;16.928;2023-01-23T10:41:43;30.17;;;15.02;;
75272;SDS011;63869;52.344;16.928;2023-01-23T10:44:17;32.97;;;15.35;;
75272;SDS011;63869;52.344;16.928;2023-01-23T10:46:44;34.63;;;15.15;;
75272;SDS011;63869;52.344;16.928;2023-01-23T10:49:25;33.20;;;15.02;;
75272;SDS011;63869;52.344;16.928;2023-01-23T10:51:53;34.47;;;14.90;;
75272;SDS011;63869;52.344;16.928;2023-01-23T10:54:22;30.80;;;15.10;;
75272;SDS011;63869;52.344;16.928;2023-01-23T10:56:54;32.58;;;14.98;;
75272;SDS011;63869;52.344;16.928;2023-01-23T10:59:29;34.88;;;15.07;;
75272;SDS011;63869;52.344;16.928;2023-01-23T11:02:17;31.02;;;14.52;;
75272;SDS011;63869;52.344;16.928;2023-01-23T11:04:45;32.15;;;14.95;;
75272;SDS011;63869;52.344;16.928;2023-01-23T11:12:16;34.78;;;15.60;;
75272;SDS011;63869;52.344;16.928;2023-01-23T11:17:40;30.35;;;14.18;;
75272;SDS011;63869;52.344;16.928;2023-01-23T11:23:02;30.52;;;14.13;;
75272;SDS011;63869;52.344;16.928;2023-01-23T11:25:30;33.28;;;15.48;;
75272;SDS011;63869;52.344;16.928;2023-01-23T11:28:02;32.47;;;14.68;;
75272;SDS011;63869;52.344;16.928;2023-01-23T11:30:45;33.20;;;15.05;;
75272;SDS011;63869;52.344;16.928;2023-01-23T11:33:13;33.80;;;12.98;;
75272;SDS011;63869;52.344;16.928;2023-01-23T11:35:58;29.90;;;14.30;;
75272;SDS011;63869;52.344;16.928;2023-01-23T11:38:27;32.92;;;15.13;;
75272;SDS011;63869;52.344;16.928;2023-01-23T11:41:00;33.42;;;14.68;;
75272;SDS011;63869;52.344;16.928;2023-01-23T11:43:27;31.45;;;14.23;;
75272;SDS011;63869;52.344;16.928;2023-01-23T11:48:45;27.73;;;13.77;;
75272;SDS011;63869;52.344;16.928;2023-01-23T11:51:23;33.33;;;14.48;;
75272;SDS011;63869;52.344;16.928;2023-01-23T11:54:02;34.00;;;14.57;;
75272;SDS011;63869;52.344;16.928;2023-01-23T11:59:27;31.55;;;14.75;;
75272;SDS011;63869;52.344;16.928;2023-01-23T12:07:25;34.17;;;14.77;;
75272;SDS011;63869;52.344;16.928;2023-01-23T12:15:42;34.40;;;15.97;;
75272;SDS011;63869;52.344;16.928;2023-01-23T12:18:19;31.88;;;14.85;;
75272;SDS011;63869;52.344;16.928;2023-01-23T12:34:57;43.28;;;17.10;;
75272;SDS011;63869;52.344;16.928;2023-01-23T12:42:45;41.60;;;17.05;;
75272;SDS011;63869;52.344;16.928;2023-01-23T12:45:19;34.20;;;16.42;;
75272;SDS011;63869;52.344;16.928;2023-01-23T12:50:37;40.47;;;16.63;;
75272;SDS011;63869;52.344;16.928;2023-01-23T12:53:12;36.05;;;16.27;;
75272;SDS011;63869;52.344;16.928;2023-01-23T12:58:20;36.38;;;16.50;;
75272;SDS011;63869;52.344;16.928;2023-01-23T13:00:57;36.35;;;15.75;;
75272;SDS011;63869;52.344;16.928;2023-01-23T13:03:45;35.28;;;16.10;;
75272;SDS011;63869;52.344;16.928;2023-01-23T13:16:57;35.97;;;15.45;;
75272;SDS011;63869;52.344;16.928;2023-01-23T13:19:28;39.75;;;15.40;;
75272;SDS011;63869;52.344;16.928;2023-01-23T13:38:46;47.67;;;18.15;;
75272;SDS011;63869;52.344;16.928;2023-01-23T13:52:17;45.70;;;17.02;;
75272;SDS011;63869;52.344;16.928;2023-01-23T13:55:12;50.13;;;17.20;;
75272;SDS011;63869;52.344;16.928;2023-01-23T13:58:07;47.28;;;17.73;;
75272;SDS011;63869;52.344;16.928;2023-01-23T14:00:35;44.10;;;15.82;;
75272;SDS011;63869;52.344;16.928;2023-01-23T14:03:13;41.63;;;17.15;;
75272;SDS011;63869;52.344;16.928;2023-01-23T14:06:10;41.10;;;16.17;;
75272;SDS011;63869;52.344;16.928;2023-01-23T14:08:49;45.45;;;16.95;;
75272;SDS011;63869;52.344;16.928;2023-01-23T14:11:16;47.30;;;17.05;;
75272;SDS011;63869;52.344;16.928;2023-01-23T14:13:47;41.00;;;17.60;;
75272;SDS011;63869;52.344;16.928;2023-01-23T14:16:37;43.45;;;21.20;;
75272;SDS011;63869;52.344;16.928;2023-01-23T14:19:13;46.47;;;19.10;;
75272;SDS011;63869;52.344;16.928;2023-01-23T14:21:48;48.08;;;20.70;;
75272;SDS011;63869;52.344;16.928;2023-01-23T14:24:22;46.90;;;22.00;;
75272;SDS011;63869;52.344;16.928;2023-01-23T14:26:51;39.20;;;17.02;;
75272;SDS011;63869;52.344;16.928;2023-01-23T14:29:23;36.67;;;16.55;;
75272;SDS011;63869;52.344;16.928;2023-01-23T14:31:49;35.35;;;14.65;;
75272;SDS011;63869;52.344;16.928;2023-01-23T14:34:22;41.03;;;15.30;;
75272;SDS011;63869;52.344;16.928;2023-01-23T14:36:50;43.50;;;14.95;;
75272;SDS011;63869;52.344;16.928;2023-01-23T14:39:17;53.05;;;16.50;;
75272;SDS011;63869;52.344;16.928;2023-01-23T14:41:47;36.10;;;14.07;;
75272;SDS011;63869;52.344;16.928;2023-01-23T14:44:19;48.47;;;15.82;;
75272;SDS011;63869;52.344;16.928;2023-01-23T14:46:53;39.55;;;15.18;;
75272;SDS011;63869;52.344;16.928;2023-01-23T14:49:23;38.72;;;15.15;;
75272;SDS011;63869;52.344;16.928;2023-01-23T14:51:55;37.75;;;14.93;;
75272;SDS011;63869;52.344;16.928;2023-01-23T14:54:22;38.97;;;15.57;;
75272;SDS011;63869;52.344;16.928;2023-01-23T14:56:47;40.47;;;15.75;;
75272;SDS011;63869;52.344;16.928;2023-01-23T14:59:15;45.15;;;17.17;;
75272;SDS011;63869;52.344;16.928;2023-01-23T15:01:56;41.60;;;17.13;;
75272;SDS011;63869;52.344;16.928;2023-01-23T15:04:24;47.45;;;17.38;;
75272;SDS011;63869;52.344;16.928;2023-01-23T15:06:55;44.35;;;17.17;;
75272;SDS011;63869;52.344;16.928;2023-01-23T15:09:30;40.67;;;16.73;;
75272;SDS011;63869;52.344;16.928;2023-01-23T15:12:11;40.38;;;16.52;;
75272;SDS011;63869;52.344;16.928;2023-01-23T15:14:40;42.50;;;16.35;;
75272;SDS011;63869;52.344;16.928;2023-01-23T15:17:17;42.40;;;16.88;;
75272;SDS011;63869;52.344;16.928;2023-01-23T15:19:48;39.78;;;16.38;;
75272;SDS011;63869;52.344;16.928;2023-01-23T15:22:17;40.83;;;16.27;;
75272;SDS011;63869;52.344;16.928;2023-01-23T15:24:45;39.17;;;16.15;;
75272;SDS011;63869;52.344;16.928;2023-01-23T15:27:33;41.22;;;17.00;;
75272;SDS011;63869;52.344;16.928;2023-01-23T15:32:57;48.88;;;16.55;;
75272;SDS011;63869;52.344;16.928;2023-01-23T15:35:29;42.20;;;17.15;;
75272;SDS011;63869;52.344;16.928;2023-01-23T15:37:56;45.22;;;17.00;;
75272;SDS011;63869;52.344;16.928;2023-01-23T15:40:27;45.35;;;16.92;;
75272;SDS011;63869;52.344;16.928;2023-01-23T15:43:04;47.67;;;16.98;;
75272;SDS011;63869;52.344;16.928;2023-01-23T15:45:42;48.78;;;17.77;;
75272;SDS011;63869;52.344;16.928;2023-01-23T15:48:07;47.75;;;17.88;;
75272;SDS011;63869;52.344;16.928;2023-01-23T15:50:32;51.85;;;18.00;;
75272;SDS011;63869;52.344;16.928;2023-01-23T15:52:58;42.13;;;17.15;;
75272;SDS011;63869;52.344;16.928;2023-01-23T15:55:24;52.22;;;19.13;;
75272;SDS011;63869;52.344;16.928;2023-01-23T15:57:52;49.85;;;17.83;;
75272;SDS011;63869;52.344;16.928;2023-01-23T16:00:19;40.08;;;16.55;;
75272;SDS011;63869;52.344;16.928;2023-01-23T16:02:51;42.55;;;15.98;;
75272;SDS011;63869;52.344;16.928;2023-01-23T16:05:18;48.60;;;17.75;;
75272;SDS011;63869;52.344;16.928;2023-01-23T16:07:44;42.35;;;16.85;;
75272;SDS011;63869;52.344;16.928;2023-01-23T16:10:21;48.88;;;19.08;;
75272;SDS011;63869;52.344;16.928;2023-01-23T16:12:49;54.58;;;18.63;;
75272;SDS011;63869;52.344;16.928;2023-01-23T16:15:20;43.70;;;15.88;;
75272;SDS011;63869;52.344;16.928;2023-01-23T16:17:47;48.35;;;16.90;;
75272;SDS011;63869;52.344;16.928;2023-01-23T16:20:14;43.45;;;17.30;;
75272;SDS011;63869;52.344;16.928;2023-01-23T16:22:41;45.33;;;17.90;;
75272;SDS011;63869;52.344;16.928;2023-01-23T16:25:16;50.85;;;18.67;;
75272;SDS011;63869;52.344;16.928;2023-01-23T16:27:43;54.42;;;18.27;;
75272;SDS011;63869;52.344;16.928;2023-01-23T16:30:14;50.83;;;18.67;;
75272;SDS011;63869;52.344;16.928;2023-01-23T16:32:41;46.50;;;17.45;;
75272;SDS011;63869;52.344;16.928;2023-01-23T16:35:07;51.55;;;18.25;;